Accueil
METAR-TAF:

METAR-TAF

Aéroports :

Schwäbisch Hall, Allemagne

latitude: 49-07-06N, longitude: 9-47-02E, altitude: 398 m

Observation

Le bulletin a été fait il y a 22 minutes, à 07:20 UTC
Vent 5 kt de ouest/sud-ouest, variant entre sud/sud-ouest et ouest
Température 17°C
Humidité 68%
Pression 1012 hPa
Visibilité 10 km ou plus
pas de nuages en-dessous de 1500 mètres et pas de cumulonimbus.

METAR: EDTY 270720Z 24005KT 210V280 CAVOK 17/11 Q1012

Heure: 09:42 (07:42 UTC)

Prévision

Le bulletin a été fait il y a 2 heures et 42 minutes, à 05:00 UTC
Prévision valable du 27 à 06 UTC au 27 à 15 UTC
Vent 4 kt de sud/sud-ouest
Visibilité 10 km ou plus
Quelques nuages à une hauteur de 4000 ft
Evoluant progressivement
du 27 à 11 UTC au 27 à 13 UTC
Vent 6 kt de ouest/nord-ouest

TAF: EDTY 270500Z 2706/2715 21004KT 9999 FEW040 BECMG 2711/2713 29006KT

Observations et prévisions météorologiques de plus de 4000 aéroports (messages METAR et TAF).

Les stations disponibles sont représentées par des disques jaunes et rouges sur la carte.

Passer la souris dessus pour voir le nom de la station.

Cliquer dessus pour voir les observations et prévisions météorologiques.

Pour changer de carte: cliquez sur les boutons verts avec une croix noire pour zoomer, sur le bouton vert avec un tiret pour effectuer un zoom arrière, ou sur les flèches vertes pour les cartes adjacentes.


METAR-TAF: